Time;durP1;ratioP1;P1;durP2;ratioP2;P2;SDS_P1;SDS_P2;PMS_P1;PMS_P2;Temp;Humidity;BMP_temperature;BMP_pressure;BME280_temperature;BME280_humidity;BME280_pressure;Samples;Min_cycle;Max_cycle;Signal;HPM_P1;HPM_P2
2021/04/27 00:01:32;;;;;;;4.97;3.20;;;;;;;2.77;100.00;100661.88;2573742;55;20106;-74
2021/04/27 00:04:00;;;;;;;6.65;3.00;;;;;;;2.77;100.00;100667.13;2573675;55;20623;-70
2021/04/27 00:06:28;;;;;;;4.75;2.87;;;;;;;2.79;100.00;100660.00;2573717;55;20527;-71
2021/04/27 00:08:55;;;;;;;7.57;3.28;;;;;;;2.74;100.00;100656.72;2573696;55;20566;-75
2021/04/27 00:11:23;;;;;;;5.53;3.28;;;;;;;2.75;100.00;100658.44;2573668;55;20497;-70
2021/04/27 00:13:51;;;;;;;5.20;3.10;;;;;;;2.73;100.00;100655.03;2573684;55;20114;-71
2021/04/27 00:16:18;;;;;;;6.07;3.20;;;;;;;2.74;100.00;100657.56;2573631;55;20606;-71
2021/04/27 00:18:46;;;;;;;4.90;3.10;;;;;;;2.74;100.00;100651.47;2573723;55;20153;-70
2021/04/27 00:21:15;;;;;;;4.82;3.22;;;;;;;2.75;100.00;100653.19;2573618;55;20487;-75
2021/04/27 00:23:42;;;;;;;8.63;3.40;;;;;;;2.74;100.00;100654.09;2573604;55;20110;-74
2021/04/27 00:26:09;;;;;;;4.93;3.50;;;;;;;2.72;100.00;100642.78;2573954;55;20113;-71
2021/04/27 00:28:36;;;;;;;5.47;4.00;;;;;;;2.74;100.00;100646.19;2573648;55;20186;-74
2021/04/27 00:31:04;;;;;;;6.80;3.60;;;;;;;2.72;100.00;100640.97;2573422;55;20141;-71
2021/04/27 00:33:31;;;;;;;5.85;3.95;;;;;;;2.72;100.00;100643.63;2573661;55;20110;-75
2021/04/27 00:35:59;;;;;;;4.62;3.30;;;;;;;2.68;100.00;100635.91;2573656;55;20113;-74
2021/04/27 00:38:27;;;;;;;7.30;3.75;;;;;;;2.71;100.00;100638.44;2573521;55;20127;-70
2021/04/27 00:40:55;;;;;;;8.73;4.37;;;;;;;2.71;100.00;100643.69;2573501;55;20122;-71
2021/04/27 00:43:22;;;;;;;4.28;3.08;;;;;;;2.70;100.00;100639.31;2573505;55;20105;-75
2021/04/27 00:45:49;;;;;;;8.27;3.65;;;;;;;2.67;100.00;100632.44;2573429;55;20662;-70
2021/04/27 00:48:17;;;;;;;6.95;4.00;;;;;;;2.63;100.00;100631.72;2573508;55;20105;-75
2021/04/27 00:50:44;;;;;;;8.30;5.05;;;;;;;2.62;100.00;100634.41;2573601;55;20118;-71
2021/04/27 00:53:12;;;;;;;5.15;3.75;;;;;;;2.60;100.00;100631.81;2573676;55;20134;-71
2021/04/27 00:55:40;;;;;;;5.53;4.30;;;;;;;2.61;100.00;100633.56;2573475;55;20631;-74
2021/04/27 00:58:08;;;;;;;7.43;3.60;;;;;;;2.59;100.00;100637.19;2573361;55;20102;-75
2021/04/27 01:00:38;;;;;;;7.90;4.03;;;;;;;2.60;100.00;100639.72;2573570;55;20509;-70
2021/04/27 01:03:06;;;;;;;7.37;3.53;;;;;;;2.61;100.00;100632.69;2573554;55;20106;-71
2021/04/27 01:05:36;;;;;;;5.82;3.75;;;;;;;2.63;100.00;100630.84;2573544;55;20516;-70
2021/04/27 01:08:10;;;;;;;5.47;3.22;;;;;;;2.63;100.00;100629.06;2573414;55;20198;-71
2021/04/27 01:10:45;;;;;;;7.78;3.47;;;;;;;2.63;100.00;100629.06;2573250;55;20117;-71
2021/04/27 01:13:20;;;;;;;4.87;3.15;;;;;;;2.63;100.00;100623.81;2573743;55;20121;-75
2021/04/27 01:15:50;;;;;;;5.87;3.87;;;;;;;2.58;100.00;100625.75;2573444;55;20121;-75
2021/04/27 01:18:20;;;;;;;7.90;5.03;;;;;;;2.52;100.00;100626.06;2573433;55;20123;-71
2021/04/27 01:20:50;;;;;;;7.03;3.67;;;;;;;2.53;100.00;100627.75;2573286;55;20136;-75
2021/04/27 01:23:57;;;;;;;7.22;3.72;;;;;;;2.63;100.00;100633.47;2573348;55;20497;-70
2021/04/27 01:26:38;;;;;;;6.50;3.30;;;;;;;2.61;100.00;100625.66;2571749;55;20122;-74
2021/04/27 01:29:15;;;;;;;5.25;3.25;;;;;;;2.59;100.00;100634.53;2573611;55;20627;-71
2021/04/27 01:31:43;;;;;;;5.90;3.33;;;;;;;2.52;100.00;100620.78;2573510;55;20638;-75
2021/04/27 01:34:15;;;;;;;6.50;4.20;;;;;;;2.51;100.00;100629.59;2573531;55;20130;-75
2021/04/27 01:36:43;;;;;;;12.20;5.20;;;;;;;2.52;100.00;100623.41;2573623;55;20121;-74
2021/04/27 01:39:12;;;;;;;7.43;4.20;;;;;;;2.49;100.00;100620.91;2573405;55;20633;-70
2021/04/27 01:41:41;;;;;;;5.60;3.50;;;;;;;2.51;100.00;100619.06;2573321;55;20496;-74
2021/04/27 01:44:10;;;;;;;7.43;3.55;;;;;;;2.50;100.00;100627.88;2573260;55;20102;-71
2021/04/27 01:46:38;;;;;;;7.65;3.30;;;;;;;2.51;100.00;100621.72;2573248;55;20638;-75
2021/04/27 01:49:06;;;;;;;5.05;3.33;;;;;;;2.50;100.00;100627.88;2573179;55;20127;-71
2021/04/27 01:51:35;;;;;;;5.22;3.50;;;;;;;2.46;100.00;100621.03;2573234;55;20109;-75
2021/04/27 01:54:07;;;;;;;5.28;3.22;;;;;;;2.44;100.00;100628.16;2573133;55;20132;-71
2021/04/27 01:56:35;;;;;;;6.15;3.62;;;;;;;2.34;100.00;100611.88;2573298;55;20121;-74
2021/04/27 01:59:04;;;;;;;6.62;3.20;;;;;;;2.41;100.00;100620.37;2573244;55;20117;-71
2021/04/27 02:01:34;;;;;;;7.07;3.10;;;;;;;2.43;100.00;100621.19;2573397;55;20620;-71
2021/04/27 02:04:01;;;;;;;3.37;2.58;;;;;;;2.45;100.00;100624.59;2573305;55;20175;-75
2021/04/27 02:06:36;;;;;;;5.80;3.30;;;;;;;2.44;100.00;100625.53;2573410;55;20113;-75
2021/04/27 02:09:09;;;;;;;3.65;2.70;;;;;;;2.42;100.00;100628.22;2573286;55;20603;-75
2021/04/27 02:11:39;;;;;;;6.43;3.62;;;;;;;2.46;100.00;100631.56;2573028;55;20136;-71
2021/04/27 02:14:09;;;;;;;;;;;;;;;2.62;100.00;100631.75;2573589;55;20139;-75
2021/04/27 02:16:40;;;;;;;4.12;2.67;;;;;;;2.49;100.00;100626.16;2573190;55;20015;-72
2021/04/27 02:19:10;;;;;;;6.37;3.50;;;;;;;2.46;100.00;100628.94;2573233;55;20122;-75
2021/04/27 02:21:40;;;;;;;4.95;2.92;;;;;;;2.43;100.00;100623.81;2573182;55;20119;-71
2021/04/27 02:24:12;;;;;;;5.00;3.00;;;;;;;2.43;100.00;100632.53;2573155;55;20157;-75
2021/04/27 02:26:41;;;;;;;5.47;3.35;;;;;;;2.41;100.00;100623.87;2573282;55;20628;-71
2021/04/27 02:29:12;;;;;;;6.12;2.90;;;;;;;2.42;100.00;100630.00;2573050;55;20161;-71
2021/04/27 02:31:40;;;;;;;5.15;3.33;;;;;;;2.42;100.00;100624.72;2573131;55;20117;-71
2021/04/27 02:34:08;;;;;;;7.87;5.00;;;;;;;2.44;100.00;100626.34;2573136;55;20153;-73
2021/04/27 02:36:38;;;;;;;8.73;5.68;;;;;;;2.41;100.00;100628.28;2573224;55;20155;-73
2021/04/27 02:39:07;;;;;;;6.50;3.87;;;;;;;2.40;100.00;100631.81;2573437;55;20135;-71
2021/04/27 02:41:36;;;;;;;9.07;3.78;;;;;;;2.40;100.00;100623.91;2573110;55;20177;-71
2021/04/27 02:44:07;;;;;;;5.43;3.50;;;;;;;2.38;100.00;100634.53;2573142;55;20159;-71
2021/04/27 02:46:37;;;;;;;7.43;4.47;;;;;;;2.35;100.00;100624.97;2573395;55;20121;-74
2021/04/27 02:49:05;;;;;;;11.68;4.30;;;;;;;2.39;100.00;100630.97;2573064;55;20105;-74
2021/04/27 02:51:35;;;;;;;6.63;3.90;;;;;;;2.42;100.00;100635.28;2573306;55;20117;-74
2021/04/27 02:54:04;;;;;;;6.45;4.05;;;;;;;2.42;100.00;100630.00;2573098;55;20143;-75
2021/04/27 02:56:31;;;;;;;4.78;3.25;;;;;;;2.34;100.00;100623.28;2573171;55;20123;-74
2021/04/27 02:58:59;;;;;;;6.68;2.90;;;;;;;2.39;100.00;100632.75;2572985;55;20505;-71
2021/04/27 03:01:27;;;;;;;8.82;3.78;;;;;;;2.40;100.00;100627.41;2573186;55;20114;-74
2021/04/27 03:03:56;;;;;;;9.07;3.22;;;;;;;2.42;100.00;100627.37;2573018;55;20129;-71
2021/04/27 03:06:24;;;;;;;4.55;2.90;;;;;;;2.43;100.00;100623.81;2573061;55;20131;-73
2021/04/27 03:08:54;;;;;;;5.30;3.20;;;;;;;2.45;100.00;100629.84;2573262;55;20128;-74
2021/04/27 03:11:21;;;;;;;5.43;3.12;;;;;;;2.46;100.00;100627.16;2573142;55;20118;-74
2021/04/27 03:13:49;;;;;;;5.10;2.87;;;;;;;2.46;100.00;100635.06;2573100;55;20688;-71
2021/04/27 03:16:16;;;;;;;8.38;2.65;;;;;;;2.44;100.00;100623.72;2573074;55;20569;-73
2021/04/27 03:18:44;;;;;;;4.50;3.00;;;;;;;2.44;100.00;100636.06;2573187;55;20128;-75
2021/04/27 03:21:12;;;;;;;4.60;3.12;;;;;;;2.43;100.00;100631.72;2573233;55;20148;-74
2021/04/27 03:23:41;;;;;;;7.18;2.72;;;;;;;2.42;100.00;100637.91;2573757;55;20112;-71
2021/04/27 03:26:08;;;;;;;4.70;3.20;;;;;;;2.41;100.00;100629.12;2573628;55;20117;-74
2021/04/27 03:28:37;;;;;;;5.82;3.28;;;;;;;2.40;100.00;100629.19;2573736;55;20139;-71
2021/04/27 03:31:05;;;;;;;7.50;3.05;;;;;;;2.38;100.00;100626.63;2573705;55;20122;-73
2021/04/27 03:33:33;;;;;;;4.22;2.78;;;;;;;2.37;100.00;100638.09;2573803;55;20113;-74
2021/04/27 03:36:00;;;;;;;5.62;3.25;;;;;;;2.37;100.00;100632.81;2573638;55;20634;-74
2021/04/27 03:38:29;;;;;;;5.07;2.80;;;;;;;2.39;100.00;100635.38;2573838;55;20098;-71
2021/04/27 03:40:57;;;;;;;5.28;2.95;;;;;;;2.39;100.00;100632.75;2573688;55;20709;-74
2021/04/27 03:43:24;;;;;;;6.00;3.25;;;;;;;2.36;100.00;100631.97;2573847;55;20478;-71
2021/04/27 03:45:52;;;;;;;10.20;3.90;;;;;;;2.39;100.00;100630.09;2573608;55;20136;-71
2021/04/27 03:48:22;;;;;;;7.87;4.00;;;;;;;2.36;100.00;100634.59;2574009;55;20109;-71
2021/04/27 03:50:50;;;;;;;7.35;2.67;;;;;;;2.31;100.00;100633.94;2573501;55;20169;-71
2021/04/27 03:53:23;;;;;;;3.78;2.50;;;;;;;2.30;100.00;100642.72;2573772;55;20177;-74
2021/04/27 03:55:51;;;;;;;6.90;2.97;;;;;;;2.27;100.00;100637.59;2573962;55;20132;-74
2021/04/27 03:58:18;;;;;;;3.85;3.15;;;;;;;2.29;100.00;100635.75;2573650;55;20153;-74
2021/04/27 04:00:47;;;;;;;5.07;2.62;;;;;;;2.29;100.00;100635.75;2573702;55;20516;-71
2021/04/27 04:03:16;;;;;;;10.20;3.08;;;;;;;2.27;100.00;100637.59;2573601;55;20117;-74
2021/04/27 04:05:43;;;;;;;3.85;2.70;;;;;;;2.27;100.00;100637.59;2573588;55;20109;-71
2021/04/27 04:08:15;;;;;;;4.47;2.17;;;;;;;2.27;100.00;100642.03;2573583;55;20178;-74
2021/04/27 04:10:43;;;;;;;3.53;2.33;;;;;;;2.22;100.00;100640.44;2573672;55;20576;-74
2021/04/27 04:13:11;;;;;;;4.75;2.47;;;;;;;2.23;100.00;100651.84;2573738;55;20110;-71
2021/04/27 04:15:39;;;;;;;5.10;3.35;;;;;;;2.21;100.00;100651.03;2573338;55;20121;-71
2021/04/27 04:18:07;;;;;;;5.50;2.60;;;;;;;2.19;100.00;100650.22;2573506;55;20117;-71
2021/04/27 04:20:34;;;;;;;3.97;2.53;;;;;;;2.23;100.00;100651.84;2573749;55;20623;-74
2021/04/27 04:23:06;;;;;;;5.15;2.50;;;;;;;2.25;100.00;100649.97;2573548;55;20135;-71
2021/04/27 04:25:34;;;;;;;3.15;2.40;;;;;;;2.26;100.00;100648.22;2573546;55;20118;-71
2021/04/27 04:28:02;;;;;;;3.80;2.53;;;;;;;2.32;100.00;100656.72;2573549;55;20132;-74
2021/04/27 04:30:30;;;;;;;5.70;2.95;;;;;;;2.30;100.00;100655.91;2573741;55;20484;-74
2021/04/27 04:33:04;;;;;;;4.68;2.65;;;;;;;2.31;100.00;100652.38;2573286;55;20190;-74
2021/04/27 04:35:37;;;;;;;5.03;2.80;;;;;;;2.36;100.00;100652.19;2573395;55;20842;-71
2021/04/27 04:38:20;;;;;;;5.18;2.70;;;;;;;2.39;100.00;100656.44;2573479;55;20117;-71
2021/04/27 04:40:56;;;;;;;4.80;3.03;;;;;;;2.42;100.00;100666.88;2573592;55;20139;-72
2021/04/27 04:43:28;;;;;;;4.78;2.20;;;;;;;2.36;100.00;100657.44;2573421;55;20118;-70
2021/04/27 04:46:03;;;;;;;6.65;2.45;;;;;;;2.34;100.00;100657.50;2573433;55;20159;-72
2021/04/27 04:48:42;;;;;;;3.30;2.30;;;;;;;2.36;100.00;100663.56;2573386;55;20133;-71
2021/04/27 04:51:10;;;;;;;4.20;2.72;;;;;;;2.41;100.00;100671.25;2573308;55;20114;-73
2021/04/27 04:53:39;;;;;;;3.87;2.33;;;;;;;2.41;100.00;100659.91;2573404;55;20114;-73
2021/04/27 04:56:07;;;;;;;5.97;2.20;;;;;;;2.44;100.00;100665.03;2573507;55;20488;-71
2021/04/27 04:58:34;;;;;;;3.67;2.37;;;;;;;2.45;100.00;100658.84;2573764;55;20159;-74
2021/04/27 05:01:03;;;;;;;4.80;2.53;;;;;;;2.45;100.00;100661.47;2573345;55;20122;-74
2021/04/27 05:03:32;;;;;;;2.28;1.92;;;;;;;2.42;100.00;100657.16;2573555;55;20114;-71
2021/04/27 05:06:16;;;;;;;4.87;2.60;;;;;;;2.43;100.00;100663.31;2573386;55;20117;-71
2021/04/27 05:08:53;;;;;;;5.22;2.53;;;;;;;2.39;100.00;100661.72;2573218;55;20132;-71
2021/04/27 05:11:29;;;;;;;5.43;2.55;;;;;;;2.44;100.00;100667.66;2573212;55;20148;-71
2021/04/27 05:13:58;;;;;;;3.22;2.12;;;;;;;2.44;100.00;100665.03;2573279;55;20121;-71
2021/04/27 05:16:26;;;;;;;2.83;1.65;;;;;;;2.36;100.00;100653.03;2573326;55;20461;-73
2021/04/27 05:18:54;;;;;;;4.30;1.92;;;;;;;2.42;100.00;100666.88;2573271;55;20118;-74
2021/04/27 05:21:22;;;;;;;4.80;1.90;;;;;;;2.43;100.00;100665.94;2573311;55;20144;-74
2021/04/27 05:23:49;;;;;;;3.37;2.00;;;;;;;2.45;100.00;100662.31;2573167;55;20109;-71
2021/04/27 05:26:17;;;;;;;4.82;2.22;;;;;;;2.47;100.00;100665.75;2573188;55;20136;-71
2021/04/27 05:28:45;;;;;;;4.35;1.92;;;;;;;2.43;100.00;100669.41;2573351;55;20125;-71
2021/04/27 05:31:12;;;;;;;3.58;1.70;;;;;;;2.46;100.00;100664.03;2573235;55;20478;-71
2021/04/27 05:33:40;;;;;;;3.67;1.70;;;;;;;2.47;99.44;100659.62;2573153;55;20519;-71
2021/04/27 05:36:07;;;;;;;3.10;1.48;;;;;;;2.52;98.55;100667.31;2573177;55;20120;-71
2021/04/27 05:38:35;;;;;;;3.72;1.83;;;;;;;2.48;99.22;100659.56;2573205;55;20234;-71
2021/04/27 05:41:02;;;;;;;4.30;1.90;;;;;;;2.51;100.00;100666.47;2573246;55;20122;-71
2021/04/27 05:43:29;;;;;;;3.05;1.87;;;;;;;2.50;99.77;100675.28;2573216;55;20146;-70
2021/04/27 05:45:57;;;;;;;3.35;1.58;;;;;;;2.51;98.56;100671.75;2572980;55;20122;-70
2021/04/27 05:48:24;;;;;;;4.20;1.67;;;;;;;2.51;100.00;100666.47;2573243;55;20117;-70
2021/04/27 05:50:52;;;;;;;6.18;2.25;;;;;;;2.54;100.00;100668.09;2573451;55;20113;-68
2021/04/27 05:53:20;;;;;;;2.45;1.70;;;;;;;2.59;97.75;100674.06;2573092;55;20118;-71
2021/04/27 05:55:47;;;;;;;2.87;1.80;;;;;;;2.56;97.34;100664.50;2573133;55;20118;-70
2021/04/27 05:58:14;;;;;;;4.30;2.35;;;;;;;2.59;98.67;100672.25;2573163;55;20121;-71
2021/04/27 06:00:42;;;;;;;4.05;2.22;;;;;;;2.61;99.58;100678.34;2573156;55;20638;-69
2021/04/27 06:03:09;;;;;;;4.22;1.70;;;;;;;2.62;98.99;100669.53;2573149;55;20113;-69
2021/04/27 06:05:37;;;;;;;3.97;2.35;;;;;;;2.67;98.05;100676.34;2573135;55;20241;-71
2021/04/27 06:08:05;;;;;;;4.40;2.28;;;;;;;2.67;97.34;100681.63;2573225;55;20106;-72
2021/04/27 06:10:33;;;;;;;7.05;2.00;;;;;;;2.70;96.16;100685.00;2573151;55;20547;-73
2021/04/27 06:13:00;;;;;;;2.95;1.50;;;;;;;2.71;96.73;100670.06;2573386;55;20117;-72
2021/04/27 06:15:27;;;;;;;2.10;1.40;;;;;;;2.76;96.39;100689.13;2573200;55;20143;-68
2021/04/27 06:17:55;;;;;;;6.30;2.08;;;;;;;2.81;97.61;100687.19;2573406;55;20097;-69
2021/04/27 06:20:22;;;;;;;2.78;1.70;;;;;;;2.93;96.94;100683.12;2572016;55;20131;-69
2021/04/27 06:22:49;;;;;;;3.30;1.90;;;;;;;3.00;97.73;100683.72;2571437;55;20135;-70
2021/04/27 06:25:18;;;;;;;3.37;1.98;;;;;;;3.09;97.90;100683.31;2571249;55;20125;-70
2021/04/27 06:27:45;;;;;;;4.55;2.78;;;;;;;3.19;97.97;100689.03;2571656;55;20143;-69
2021/04/27 06:30:15;;;;;;;2.80;1.52;;;;;;;3.09;96.26;100698.28;2571897;55;20129;-70
2021/04/27 06:32:42;;;;;;;2.55;1.70;;;;;;;2.99;97.19;100687.28;2571812;55;20139;-69
2021/04/27 06:35:10;;;;;;;2.35;1.35;;;;;;;2.95;98.15;100686.53;2572383;55;20109;-70
2021/04/27 06:37:37;;;;;;;3.05;1.87;;;;;;;2.88;98.10;100685.13;2573190;55;20708;-70
2021/04/27 06:40:06;;;;;;;3.33;1.30;;;;;;;2.87;97.89;100694.78;2573490;55;20113;-69
2021/04/27 06:42:34;;;;;;;2.75;1.42;;;;;;;2.85;97.98;100688.75;2573254;55;20136;-69
2021/04/27 06:45:02;;;;;;;1.67;1.25;;;;;;;2.76;98.73;100689.13;2573204;55;20139;-69
2021/04/27 06:47:30;;;;;;;2.92;1.62;;;;;;;2.86;100.00;100693.09;2573404;55;20502;-69
2021/04/27 06:49:58;;;;;;;3.87;1.98;;;;;;;2.95;98.58;100699.72;2573293;55;20133;-71
2021/04/27 06:52:25;;;;;;;3.58;2.03;;;;;;;3.08;98.29;100694.78;2573268;55;20642;-70
2021/04/27 06:54:53;;;;;;;7.40;2.22;;;;;;;3.28;99.39;100699.19;2573168;55;20113;-70
2021/04/27 06:57:20;;;;;;;2.60;1.40;;;;;;;3.34;97.22;100695.41;2573410;55;20129;-69
2021/04/27 06:59:48;;;;;;;4.37;1.12;;;;;;;3.43;94.57;100696.75;2573388;55;20109;-71
2021/04/27 07:02:15;;;;;;;2.45;0.85;;;;;;;3.45;92.68;100701.03;2573131;55;20128;-69
2021/04/27 07:04:43;;;;;;;4.30;1.25;;;;;;;3.39;92.28;100693.41;2573184;55;20130;-70
2021/04/27 07:07:10;;;;;;;2.85;1.90;;;;;;;3.38;93.92;100699.59;2573206;55;20520;-70
2021/04/27 07:09:38;;;;;;;1.42;0.80;;;;;;;3.38;94.18;100701.41;2573073;55;20135;-68
2021/04/27 07:12:06;;;;;;;2.17;1.00;;;;;;;3.38;94.77;100704.87;2573061;55;20130;-69
2021/04/27 07:14:33;;;;;;;3.33;1.23;;;;;;;3.38;94.18;100696.12;2573216;55;20521;-70
2021/04/27 07:17:02;;;;;;;1.95;1.10;;;;;;;3.50;92.82;100702.59;2573160;55;20414;-71
2021/04/27 07:19:29;;;;;;;1.87;0.82;;;;;;;3.36;92.40;100695.31;2573001;55;20135;-71
2021/04/27 07:21:57;;;;;;;1.98;0.90;;;;;;;3.27;92.64;100712.41;2573038;55;20106;-71
2021/04/27 07:24:25;;;;;;;1.25;0.93;;;;;;;3.14;93.37;100712.97;2573071;55;20158;-69
2021/04/27 07:26:52;;;;;;;3.20;0.90;;;;;;;3.11;93.96;100712.25;2573045;55;20125;-69
2021/04/27 07:29:20;;;;;;;1.37;1.00;;;;;;;3.22;93.20;100714.44;2572960;55;20101;-70
2021/04/27 07:31:48;;;;;;;1.62;1.10;;;;;;;3.22;93.90;100706.50;2572985;55;20117;-69
2021/04/27 07:34:16;;;;;;;1.98;1.33;;;;;;;3.27;92.15;100712.41;2573006;55;20131;-70
2021/04/27 07:36:44;;;;;;;1.52;0.93;;;;;;;3.32;94.20;100718.37;2573030;55;20109;-71
2021/04/27 07:39:14;;;;;;;3.22;1.37;;;;;;;3.34;94.70;100730.53;2572980;55;20116;-69
2021/04/27 07:41:42;;;;;;;2.12;1.27;;;;;;;3.20;95.06;100728.50;2572848;55;20130;-71
2021/04/27 07:44:10;;;;;;;2.83;1.45;;;;;;;2.99;95.68;100727.69;2572981;55;20227;-69
2021/04/27 07:46:38;;;;;;;1.85;1.20;;;;;;;2.83;96.29;100724.84;2572981;55;20136;-69
2021/04/27 07:49:05;;;;;;;2.25;1.20;;;;;;;2.79;98.14;100723.25;2573011;55;20122;-71
2021/04/27 07:51:34;;;;;;;1.65;1.30;;;;;;;2.82;99.06;100722.28;2573001;55;20114;-69
2021/04/27 07:54:01;;;;;;;2.20;1.17;;;;;;;2.92;99.86;100724.47;2572672;55;20157;-70
2021/04/27 07:56:30;;;;;;;1.45;1.33;;;;;;;3.05;99.74;100723.91;2572961;55;20627;-70
2021/04/27 07:58:59;;;;;;;2.12;1.40;;;;;;;3.05;99.01;100719.50;2572937;55;20105;-71
2021/04/27 08:01:27;;;;;;;3.10;1.73;;;;;;;3.10;98.78;100721.91;2572895;55;20540;-69
2021/04/27 08:03:55;;;;;;;2.90;1.67;;;;;;;3.13;99.50;100724.44;2572848;55;20122;-70
2021/04/27 08:06:22;;;;;;;4.47;1.60;;;;;;;3.03;98.00;100725.78;2573027;55;20164;-70
2021/04/27 08:08:50;;;;;;;1.98;1.10;;;;;;;3.09;98.42;100730.75;2573188;55;20122;-69
2021/04/27 08:11:18;;;;;;;3.22;1.27;;;;;;;3.18;98.97;100726.88;2573744;55;20132;-70
2021/04/27 08:13:45;;;;;;;2.47;1.30;;;;;;;3.30;98.29;100728.97;2573763;55;20128;-69
2021/04/27 08:16:13;;;;;;;2.53;2.05;;;;;;;3.42;97.93;100717.03;2573684;55;20109;-71
2021/04/27 08:18:41;;;;;;;2.65;1.60;;;;;;;3.50;96.90;100715.78;2573755;55;20611;-71
2021/04/27 08:21:11;;;;;;;3.67;1.33;;;;;;;3.46;97.16;100726.50;2573793;55;20124;-69
2021/04/27 08:23:40;;;;;;;1.58;1.17;;;;;;;3.37;98.94;100729.53;2573770;55;20114;-69
2021/04/27 08:26:11;;;;;;;1.52;0.90;;;;;;;3.45;96.74;100716.88;2573634;55;20117;-69
2021/04/27 08:28:39;;;;;;;1.73;1.25;;;;;;;3.89;97.68;100715.75;2573679;55;20110;-71
2021/04/27 08:31:07;;;;;;;2.53;1.10;;;;;;;4.30;94.09;100719.13;2573632;55;20106;-71
2021/04/27 08:33:35;;;;;;;1.50;0.93;;;;;;;4.50;91.41;100715.47;2573738;55;20600;-69
2021/04/27 08:36:03;;;;;;;1.10;1.00;;;;;;;4.09;89.53;100663.78;2573602;55;20105;-69
2021/04/27 08:38:31;;;;;;;1.83;0.90;;;;;;;4.28;89.97;100721.81;2573580;55;20637;-71
2021/04/27 08:40:59;;;;;;;2.72;0.93;;;;;;;4.22;88.39;100711.56;2573670;55;20620;-69
2021/04/27 08:43:29;;;;;;;1.40;0.90;;;;;;;4.31;89.18;100716.41;2573591;55;20130;-70
2021/04/27 08:45:56;;;;;;;1.60;1.12;;;;;;;4.40;91.39;100719.50;2573811;55;20133;-69
2021/04/27 08:48:24;;;;;;;1.45;0.90;;;;;;;4.39;90.75;100713.38;2573597;55;20145;-70
2021/04/27 08:50:52;;;;;;;0.90;0.60;;;;;;;4.50;90.39;100715.47;2573826;55;20620;-69
2021/04/27 08:53:20;;;;;;;2.03;1.10;;;;;;;4.64;89.86;100727.16;2573550;55;20411;-69
2021/04/27 08:55:48;;;;;;;1.60;1.10;;;;;;;4.57;87.92;100722.16;2573582;55;20113;-70
2021/04/27 08:58:16;;;;;;;1.40;1.00;;;;;;;4.41;89.30;100716.78;2573577;55;20482;-70
2021/04/27 09:00:46;;;;;;;2.67;1.70;;;;;;;4.40;91.26;100727.44;2573687;55;20109;-71
2021/04/27 09:03:14;;;;;;;1.27;1.02;;;;;;;4.40;91.20;100735.34;2573546;55;20608;-69
2021/04/27 09:05:43;;;;;;;4.32;2.08;;;;;;;4.29;89.75;100723.53;2573472;55;20654;-71
2021/04/27 09:08:11;;;;;;;2.45;1.00;;;;;;;4.35;90.07;100729.44;2573489;55;20499;-71
2021/04/27 09:10:43;;;;;;;1.35;0.88;;;;;;;4.42;91.70;100729.06;2573504;55;20662;-69
2021/04/27 09:13:12;;;;;;;1.30;0.90;;;;;;;4.33;90.87;100713.66;2573574;55;20114;-71
2021/04/27 09:15:45;;;;;;;2.10;1.12;;;;;;;4.26;93.55;100725.47;2573428;55;20124;-70
2021/04/27 09:18:30;;;;;;;1.95;1.25;;;;;;;4.23;92.92;100721.19;2573687;55;20117;-69
2021/04/27 09:21:00;;;;;;;4.65;2.17;;;;;;;4.10;95.21;100720.06;2573565;55;20117;-69
2021/04/27 09:23:29;;;;;;;3.30;1.77;;;;;;;3.99;94.53;100723.22;2573468;55;20121;-71
2021/04/27 09:26:10;;;;;;;2.62;1.60;;;;;;;4.02;93.46;100723.94;2573719;55;20131;-70
2021/04/27 09:28:39;;;;;;;4.22;2.72;;;;;;;3.91;94.43;100731.53;2573640;55;20117;-71
2021/04/27 09:31:23;;;;;;;5.35;2.97;;;;;;;4.09;94.21;100726.28;2573381;55;20125;-69
2021/04/27 09:33:51;;;;;;;6.35;2.92;;;;;;;4.05;95.65;100720.28;2573725;55;20767;-69
2021/04/27 09:36:20;;;;;;;2.80;2.25;;;;;;;4.16;95.28;100722.41;2573410;55;20118;-69
2021/04/27 09:38:48;;;;;;;2.37;1.75;;;;;;;4.29;92.54;100726.16;2573539;55;20628;-70
2021/04/27 09:41:16;;;;;;;1.50;1.30;;;;;;;4.44;91.14;100735.13;2573495;55;20121;-69
2021/04/27 09:43:45;;;;;;;1.75;1.40;;;;;;;4.64;92.32;100729.81;2573335;55;20568;-71
2021/04/27 09:46:15;;;;;;;1.77;1.17;;;;;;;4.60;89.32;100732.56;2573311;55;20129;-70
2021/04/27 09:48:44;;;;;;;1.17;0.82;;;;;;;4.43;90.31;100736.06;2573599;55;20117;-71
2021/04/27 09:51:23;;;;;;;1.75;1.17;;;;;;;4.46;90.37;100735.06;2573246;55;20133;-71
2021/04/27 09:53:54;;;;;;;6.37;1.25;;;;;;;4.38;90.36;100738.09;2573326;55;20118;-70
2021/04/27 09:56:48;;;;;;;11.40;1.48;;;;;;;4.38;90.01;100739.88;2568461;55;20125;-71
2021/04/27 09:59:20;;;;;;;1.12;1.00;;;;;;;4.03;90.26;100730.94;2570603;55;20113;-70
2021/04/27 10:01:49;;;;;;;2.55;1.10;;;;;;;4.01;88.97;100738.09;2573479;55;20644;-71
2021/04/27 10:04:18;;;;;;;2.33;1.23;;;;;;;4.07;91.48;100743.97;2573341;55;20119;-71
2021/04/27 10:06:45;;;;;;;1.15;0.65;;;;;;;4.13;90.50;100741.91;2573561;55;20117;-71
2021/04/27 10:09:13;;;;;;;0.90;0.65;;;;;;;4.20;91.93;100745.09;2573363;55;20124;-70
2021/04/27 10:11:41;;;;;;;1.73;0.93;;;;;;;4.21;91.05;100720.44;2573338;55;20118;-69
2021/04/27 10:14:10;;;;;;;2.00;1.30;;;;;;;4.32;90.77;100736.59;2573201;55;20124;-69
2021/04/27 10:16:39;;;;;;;1.50;0.82;;;;;;;4.27;89.19;100725.41;2573274;55;20116;-69
2021/04/27 10:19:08;;;;;;;0.90;0.80;;;;;;;4.22;88.24;100742.41;2573547;55;20531;-71
2021/04/27 10:21:37;;;;;;;1.85;1.00;;;;;;;4.39;91.11;100738.94;2573307;55;20731;-69
2021/04/27 10:24:08;;;;;;;2.28;1.02;;;;;;;4.44;90.95;100739.56;2568184;55;20118;-70
2021/04/27 10:26:37;;;;;;;2.53;1.15;;;;;;;4.35;91.73;100740.03;2573450;55;20206;-71
2021/04/27 10:29:07;;;;;;;1.95;1.20;;;;;;;4.30;93.51;100745.53;2573268;55;20135;-70
2021/04/27 10:31:35;;;;;;;2.62;1.95;;;;;;;4.29;91.57;100743.81;2573229;55;20139;-71
2021/04/27 10:34:08;;;;;;;5.22;2.40;;;;;;;4.20;91.33;100745.09;2573467;55;20125;-71
2021/04/27 10:36:40;;;;;;;8.30;1.85;;;;;;;4.27;90.42;100740.41;2573397;55;20136;-69
2021/04/27 10:39:09;;;;;;;2.17;1.40;;;;;;;4.27;89.06;100740.41;2573484;55;20121;-71
2021/04/27 10:41:46;;;;;;;2.65;1.42;;;;;;;4.32;90.88;100739.25;2573310;55;20101;-72
2021/04/27 10:44:15;;;;;;;3.00;1.27;;;;;;;3.96;90.95;100752.41;2573261;55;20126;-69
2021/04/27 10:46:48;;;;;;;3.97;2.20;;;;;;;3.80;91.82;100749.63;2573218;55;20110;-69
2021/04/27 10:49:28;;;;;;;5.57;2.25;;;;;;;3.84;89.78;100759.13;2573351;55;20132;-71
2021/04/27 10:51:57;;;;;;;2.12;1.30;;;;;;;3.83;89.52;100757.41;2573334;55;20121;-69
2021/04/27 10:54:29;;;;;;;2.17;1.40;;;;;;;3.96;90.72;100742.72;2573270;55;20125;-71
2021/04/27 10:57:14;;;;;;;3.03;1.70;;;;;;;4.21;89.84;100746.84;2573339;55;20110;-70
2021/04/27 10:59:53;;;;;;;2.83;1.85;;;;;;;4.41;90.14;100745.00;2573053;55;20129;-71
2021/04/27 11:02:24;;;;;;;2.28;1.80;;;;;;;4.30;90.15;100738.44;2573034;55;20168;-69
2021/04/27 11:04:53;;;;;;;4.25;2.97;;;;;;;4.04;91.53;100744.97;2573114;55;20129;-70
2021/04/27 11:07:40;;;;;;;4.90;3.08;;;;;;;4.04;93.98;100743.22;2573029;55;20121;-69
2021/04/27 11:10:30;;;;;;;2.42;1.40;;;;;;;4.01;92.61;100737.22;2573239;55;20492;-71
2021/04/27 11:13:01;;;;;;;5.25;2.17;;;;;;;3.93;94.23;100745.50;2573186;55;20117;-69
2021/04/27 11:15:32;;;;;;;2.72;1.92;;;;;;;4.03;92.92;100744.12;2573167;55;20153;-69
2021/04/27 11:18:04;;;;;;;2.47;1.07;;;;;;;3.99;91.18;100745.19;2573300;55;20414;-69
2021/04/27 11:21:11;;;;;;;2.55;1.30;;;;;;;4.08;89.06;100750.97;2573055;55;20125;-71
2021/04/27 11:23:45;;;;;;;2.03;1.05;;;;;;;3.96;87.30;100758.56;2567242;55;20616;-71
2021/04/27 11:26:42;;;;;;;2.12;1.17;;;;;;;4.08;86.93;100756.25;2573196;55;20132;-70
2021/04/27 11:29:15;;;;;;;1.33;1.00;;;;;;;4.16;90.06;100743.53;2573113;55;20110;-70
2021/04/27 11:31:54;;;;;;;1.90;1.17;;;;;;;4.33;91.08;100748.00;2573124;55;20117;-71
2021/04/27 11:34:22;;;;;;;1.92;1.20;;;;;;;4.38;91.76;100750.44;2572918;55;20129;-69
2021/04/27 11:36:50;;;;;;;1.75;1.30;;;;;;;4.54;90.66;100745.25;2572963;55;20114;-69
2021/04/27 11:39:20;;;;;;;1.35;0.90;;;;;;;4.57;89.30;100753.88;2573023;55;20137;-69
2021/04/27 11:41:50;;;;;;;2.12;1.00;;;;;;;4.58;86.95;100752.94;2572985;55;20114;-69